Time;durP1;ratioP1;P1;durP2;ratioP2;P2;SDS_P1;SDS_P2;PMS_P1;PMS_P2;Temp;Humidity;BMP_temperature;BMP_pressure;BME280_temperature;BME280_humidity;BME280_pressure;Samples;Min_cycle;Max_cycle;Signal;HPM_P1;HPM_P2
2024/02/18 00:00:26;;;;;;;7.95;6.95;;;4.90;99.90;;;;;;493983;241;27592;-74
2024/02/18 00:02:28;;;;;;;9.07;6.68;;;4.90;99.90;;;;;;493973;241;27568;-73
2024/02/18 00:04:30;;;;;;;6.55;5.90;;;4.90;99.90;;;;;;493985;241;27926;-73
2024/02/18 00:06:30;;;;;;;7.75;6.65;;;4.90;99.90;;;;;;493897;241;27982;-74
2024/02/18 00:08:31;;;;;;;8.10;6.18;;;4.70;99.90;;;;;;493938;241;28095;-73
2024/02/18 00:10:33;;;;;;;7.40;6.53;;;4.70;99.90;;;;;;493964;241;27596;-73
2024/02/18 00:12:34;;;;;;;7.40;6.55;;;4.70;99.90;;;;;;493980;241;27472;-73
2024/02/18 00:14:35;;;;;;;7.75;6.50;;;4.80;99.90;;;;;;493983;241;27543;-73
2024/02/18 00:16:36;;;;;;;9.35;6.90;;;4.70;99.90;;;;;;493934;241;27551;-74
2024/02/18 00:18:38;;;;;;;15.40;8.20;;;4.70;99.90;;;;;;493904;241;27466;-73
2024/02/18 00:20:39;;;;;;;9.50;7.72;;;4.70;99.90;;;;;;493824;241;27507;-74
2024/02/18 00:22:40;;;;;;;10.65;7.50;;;4.60;99.90;;;;;;493941;241;28688;-73
2024/02/18 00:24:41;;;;;;;9.68;6.53;;;4.60;99.90;;;;;;493974;241;28003;-73
2024/02/18 00:26:43;;;;;;;11.40;7.68;;;4.70;99.90;;;;;;493952;241;27524;-74
2024/02/18 00:28:44;;;;;;;10.18;7.80;;;4.70;99.90;;;;;;493911;241;27477;-73
2024/02/18 00:30:49;;;;;;;12.27;7.28;;;4.70;99.90;;;;;;493930;241;27538;-74
2024/02/18 00:32:47;;;;;;;8.77;7.05;;;4.70;99.90;;;;;;493688;241;27856;-76
2024/02/18 00:34:48;;;;;;;9.85;7.07;;;4.60;99.90;;;;;;493985;241;27570;-73
2024/02/18 00:36:49;;;;;;;8.15;6.05;;;4.60;99.90;;;;;;493931;241;28073;-73
2024/02/18 00:38:50;;;;;;;8.18;5.70;;;4.60;99.90;;;;;;493937;241;27935;-72
2024/02/18 00:40:51;;;;;;;7.47;5.70;;;4.60;99.90;;;;;;494023;241;27565;-73
2024/02/18 00:42:53;;;;;;;10.65;7.68;;;4.50;99.90;;;;;;493965;241;27628;-74
2024/02/18 00:44:54;;;;;;;10.07;7.30;;;4.50;99.90;;;;;;493976;241;27470;-73
2024/02/18 00:46:55;;;;;;;11.63;7.18;;;4.50;99.90;;;;;;493932;241;27552;-74
2024/02/18 00:48:56;;;;;;;9.07;7.72;;;4.50;99.90;;;;;;493977;241;27603;-73
2024/02/18 00:50:58;;;;;;;9.75;7.07;;;4.50;99.90;;;;;;494040;237;27986;-73
2024/02/18 00:52:59;;;;;;;13.07;9.02;;;4.60;99.90;;;;;;493976;241;28054;-74
2024/02/18 00:55:00;;;;;;;12.68;7.35;;;4.50;99.90;;;;;;493996;241;27453;-73
2024/02/18 00:57:02;;;;;;;8.25;6.75;;;4.60;99.90;;;;;;493934;237;27605;-74
2024/02/18 00:59:03;;;;;;;10.45;7.43;;;4.50;99.90;;;;;;494014;241;27589;-74
2024/02/18 01:01:05;;;;;;;7.53;6.70;;;4.50;99.90;;;;;;494035;241;27470;-73
2024/02/18 01:03:05;;;;;;;10.07;6.30;;;4.40;99.90;;;;;;493953;241;27530;-74
2024/02/18 01:05:07;;;;;;;6.80;5.82;;;4.30;99.90;;;;;;493988;241;27993;-73
2024/02/18 01:07:08;;;;;;;7.80;6.40;;;4.20;99.90;;;;;;493899;241;29020;-74
2024/02/18 01:09:09;;;;;;;8.60;6.55;;;4.20;99.90;;;;;;493979;241;27525;-74
2024/02/18 01:11:11;;;;;;;7.00;6.05;;;4.20;99.90;;;;;;493981;241;27498;-73
2024/02/18 01:13:12;;;;;;;8.05;6.82;;;4.20;99.90;;;;;;493921;241;27505;-74
2024/02/18 01:15:13;;;;;;;7.90;6.35;;;4.30;99.90;;;;;;493970;241;27518;-73
2024/02/18 01:17:14;;;;;;;10.63;7.37;;;4.20;99.90;;;;;;493946;241;27473;-73
2024/02/18 01:19:15;;;;;;;8.73;7.30;;;4.20;99.90;;;;;;493954;241;27498;-74
2024/02/18 01:21:18;;;;;;;11.50;7.90;;;4.10;99.90;;;;;;493973;241;27464;-74
2024/02/18 01:23:18;;;;;;;12.75;8.48;;;4.10;99.90;;;;;;493594;241;28057;-73
2024/02/18 01:25:19;;;;;;;10.90;8.18;;;4.10;99.90;;;;;;493967;241;28076;-75
2024/02/18 01:27:21;;;;;;;11.25;7.15;;;4.10;99.90;;;;;;493924;241;27468;-74
2024/02/18 01:29:22;;;;;;;9.30;6.82;;;4.10;99.90;;;;;;493906;241;27605;-73
2024/02/18 01:31:23;;;;;;;11.35;7.40;;;4.10;99.90;;;;;;493922;241;27489;-73
2024/02/18 01:33:24;;;;;;;13.65;7.00;;;4.10;99.90;;;;;;493933;241;27600;-73
2024/02/18 01:35:25;;;;;;;10.88;6.75;;;4.00;99.90;;;;;;493978;241;27625;-75
2024/02/18 01:37:27;;;;;;;8.38;7.45;;;4.00;99.90;;;;;;493919;241;27462;-73
2024/02/18 01:39:28;;;;;;;8.15;6.10;;;4.00;99.90;;;;;;493942;241;28020;-74
2024/02/18 01:41:29;;;;;;;8.20;5.65;;;4.00;99.90;;;;;;493923;241;28703;-73
2024/02/18 01:43:30;;;;;;;13.00;6.78;;;4.00;99.90;;;;;;493974;241;27937;-73
2024/02/18 01:45:32;;;;;;;8.18;6.10;;;4.00;99.90;;;;;;493965;241;27570;-75
2024/02/18 01:47:33;;;;;;;9.20;5.78;;;4.00;99.90;;;;;;493919;241;27512;-73
2024/02/18 01:49:34;;;;;;;12.57;7.35;;;4.00;99.90;;;;;;493926;241;27541;-73
2024/02/18 01:51:36;;;;;;;9.57;6.62;;;3.90;99.90;;;;;;493945;241;27555;-74
2024/02/18 01:53:37;;;;;;;9.05;6.15;;;3.80;99.90;;;;;;493935;241;27478;-73
2024/02/18 01:55:38;;;;;;;6.40;5.50;;;3.80;99.90;;;;;;493951;241;27531;-73
2024/02/18 01:57:39;;;;;;;8.70;6.70;;;3.90;99.90;;;;;;493885;237;27457;-73
2024/02/18 01:59:40;;;;;;;8.18;6.35;;;3.90;99.90;;;;;;493941;241;27945;-74
2024/02/18 02:01:42;;;;;;;6.97;5.68;;;3.80;99.90;;;;;;493953;241;29244;-75
2024/02/18 02:03:43;;;;;;;10.00;5.70;;;3.80;99.90;;;;;;493762;241;28006;-73
2024/02/18 02:05:44;;;;;;;8.15;6.50;;;3.70;99.90;;;;;;493943;241;27606;-74
2024/02/18 02:07:45;;;;;;;13.45;6.80;;;3.70;99.90;;;;;;493861;241;27552;-73
2024/02/18 02:09:47;;;;;;;7.05;6.10;;;3.70;99.90;;;;;;493977;241;27599;-73
2024/02/18 02:11:48;;;;;;;6.28;5.47;;;3.70;99.90;;;;;;493971;241;27532;-74
2024/02/18 02:13:49;;;;;;;8.35;5.90;;;3.70;99.90;;;;;;493933;241;27458;-73
2024/02/18 02:15:51;;;;;;;7.32;5.90;;;3.70;99.90;;;;;;493943;241;27493;-73
2024/02/18 02:17:53;;;;;;;7.15;5.93;;;3.80;99.90;;;;;;493937;241;28258;-72
2024/02/18 02:19:53;;;;;;;8.32;5.95;;;3.90;99.90;;;;;;493945;241;28009;-73
2024/02/18 02:21:54;;;;;;;6.90;5.82;;;3.90;99.90;;;;;;493944;241;28102;-74
2024/02/18 02:23:55;;;;;;;8.85;7.20;;;3.90;99.90;;;;;;493919;241;27580;-73
2024/02/18 02:25:57;;;;;;;14.55;8.95;;;4.00;99.90;;;;;;493927;241;27577;-73
2024/02/18 02:27:58;;;;;;;13.23;8.60;;;4.00;99.90;;;;;;493952;241;27513;-75
2024/02/18 02:29:59;;;;;;;13.75;9.90;;;4.00;99.90;;;;;;493949;237;27574;-72
2024/02/18 02:32:01;;;;;;;13.15;9.40;;;4.00;99.90;;;;;;493930;241;27532;-74
2024/02/18 02:34:02;;;;;;;16.67;8.65;;;4.10;99.90;;;;;;493943;241;27557;-73
2024/02/18 02:36:03;;;;;;;12.35;8.50;;;4.10;99.90;;;;;;493938;241;28001;-73
2024/02/18 02:38:04;;;;;;;12.15;8.95;;;4.10;99.90;;;;;;493948;241;27981;-74
2024/02/18 02:40:06;;;;;;;15.80;10.30;;;4.20;99.90;;;;;;493944;237;27454;-72
2024/02/18 02:42:07;;;;;;;11.27;8.23;;;4.30;99.90;;;;;;493947;241;27508;-74
2024/02/18 02:44:08;;;;;;;14.15;8.77;;;4.30;99.90;;;;;;493902;241;27457;-73
2024/02/18 02:46:09;;;;;;;16.70;10.88;;;4.30;99.90;;;;;;493840;241;27464;-74
2024/02/18 02:48:11;;;;;;;20.60;8.98;;;4.30;99.90;;;;;;493925;237;27600;-74
2024/02/18 02:50:12;;;;;;;13.00;8.05;;;4.30;99.90;;;;;;493909;241;27946;-73
2024/02/18 02:52:13;;;;;;;12.60;8.95;;;4.30;99.90;;;;;;493908;241;28102;-74
2024/02/18 02:54:14;;;;;;;10.45;7.50;;;4.30;99.90;;;;;;493961;241;27543;-76
2024/02/18 02:56:16;;;;;;;10.95;7.90;;;4.10;99.90;;;;;;493912;241;27482;-73
2024/02/18 02:58:17;;;;;;;8.93;6.47;;;4.10;99.90;;;;;;493948;241;27527;-74
2024/02/18 03:00:18;;;;;;;8.80;6.18;;;4.00;99.90;;;;;;493934;241;27474;-73
2024/02/18 03:02:20;;;;;;;9.70;6.62;;;3.80;99.90;;;;;;493900;241;27501;-73
2024/02/18 03:04:21;;;;;;;10.98;6.37;;;3.80;99.90;;;;;;493941;241;27616;-73
2024/02/18 03:06:22;;;;;;;11.12;6.70;;;3.70;99.90;;;;;;493863;241;28092;-72
2024/02/18 03:08:23;;;;;;;9.90;6.50;;;3.70;99.90;;;;;;493933;241;28000;-74
2024/02/18 03:10:24;;;;;;;9.38;6.28;;;3.70;99.90;;;;;;493854;241;27907;-73
2024/02/18 03:12:26;;;;;;;8.75;6.90;;;3.80;99.90;;;;;;493941;241;27584;-74
2024/02/18 03:14:27;;;;;;;8.52;6.05;;;3.80;99.90;;;;;;493961;241;27485;-73
2024/02/18 03:16:28;;;;;;;8.23;6.35;;;3.90;99.90;;;;;;493860;239;27462;-73
2024/02/18 03:18:29;;;;;;;9.52;6.35;;;4.00;99.90;;;;;;493938;241;27498;-74
2024/02/18 03:20:32;;;;;;;9.55;7.28;;;4.00;99.90;;;;;;493897;241;27501;-73
2024/02/18 03:22:34;;;;;;;10.25;7.10;;;4.10;99.90;;;;;;493916;241;27614;-72
2024/02/18 03:24:34;;;;;;;8.95;6.75;;;4.10;99.90;;;;;;493818;241;27631;-74
2024/02/18 03:26:34;;;;;;;12.90;7.62;;;4.20;99.90;;;;;;493898;241;27488;-73
2024/02/18 03:28:36;;;;;;;10.27;7.62;;;4.20;99.90;;;;;;493924;241;27954;-73
2024/02/18 03:30:37;;;;;;;12.07;7.85;;;4.20;99.90;;;;;;493967;241;28153;-75
2024/02/18 03:32:38;;;;;;;11.10;7.35;;;4.30;99.90;;;;;;493940;241;27472;-73
2024/02/18 03:34:39;;;;;;;11.90;8.15;;;4.30;99.90;;;;;;493964;241;27494;-73
2024/02/18 03:36:41;;;;;;;14.60;9.57;;;4.40;99.90;;;;;;493903;241;27476;-73
2024/02/18 03:38:42;;;;;;;13.23;8.23;;;4.40;99.90;;;;;;493922;241;27506;-73
2024/02/18 03:40:43;;;;;;;11.43;8.15;;;4.50;99.90;;;;;;493965;241;27616;-74
2024/02/18 03:42:44;;;;;;;12.60;8.27;;;4.60;99.90;;;;;;493948;241;27608;-73
2024/02/18 03:44:46;;;;;;;14.55;8.23;;;4.50;99.90;;;;;;493928;241;28103;-73
2024/02/18 03:46:49;;;;;;;11.90;8.65;;;4.50;99.90;;;;;;493934;241;27978;-73
2024/02/18 03:48:48;;;;;;;11.10;7.78;;;4.50;99.90;;;;;;493829;241;27525;-73
2024/02/18 03:50:49;;;;;;;15.23;9.43;;;4.60;99.90;;;;;;493955;237;27532;-74
2024/02/18 03:52:51;;;;;;;10.35;8.05;;;4.60;99.90;;;;;;493955;241;27507;-73
2024/02/18 03:54:52;;;;;;;12.75;7.75;;;4.60;99.90;;;;;;493882;241;27510;-73
2024/02/18 03:56:53;;;;;;;12.35;8.30;;;4.60;99.90;;;;;;493905;241;27522;-75
2024/02/18 03:58:55;;;;;;;11.93;8.00;;;4.50;99.90;;;;;;493819;241;27923;-73
2024/02/18 04:00:56;;;;;;;11.40;7.55;;;4.40;99.90;;;;;;493952;241;27976;-74
2024/02/18 04:02:57;;;;;;;9.63;7.43;;;4.40;99.90;;;;;;493925;241;27576;-73
2024/02/18 04:04:58;;;;;;;13.70;8.70;;;4.30;99.90;;;;;;493922;241;27501;-73
2024/02/18 04:07:00;;;;;;;11.88;7.80;;;4.20;99.90;;;;;;493940;241;27643;-74
2024/02/18 04:09:01;;;;;;;10.68;7.50;;;4.10;99.90;;;;;;493957;241;27494;-73
2024/02/18 04:11:02;;;;;;;11.10;7.43;;;4.00;99.90;;;;;;493946;241;27509;-74
2024/02/18 04:13:03;;;;;;;9.45;7.32;;;3.90;99.90;;;;;;493918;241;29021;-73
2024/02/18 04:15:05;;;;;;;11.27;7.10;;;3.80;99.90;;;;;;493982;241;27922;-73
2024/02/18 04:17:06;;;;;;;7.97;6.87;;;3.70;99.90;;;;;;493914;241;28042;-73
2024/02/18 04:19:07;;;;;;;9.32;7.37;;;3.70;99.90;;;;;;493939;241;27501;-73
2024/02/18 04:21:08;;;;;;;10.40;6.80;;;3.70;99.90;;;;;;493901;241;27608;-73
2024/02/18 04:23:10;;;;;;;8.98;6.82;;;3.60;99.90;;;;;;493944;241;27522;-73
2024/02/18 04:25:11;;;;;;;11.25;7.60;;;3.60;99.90;;;;;;493977;241;27453;-73
2024/02/18 04:27:12;;;;;;;8.23;6.62;;;3.70;99.90;;;;;;493842;241;27548;-74
2024/02/18 04:29:13;;;;;;;12.73;8.13;;;3.70;99.90;;;;;;493936;241;27528;-73
2024/02/18 04:31:15;;;;;;;17.23;7.65;;;3.70;99.90;;;;;;493928;241;27545;-74
2024/02/18 04:33:16;;;;;;;13.35;7.40;;;3.70;99.90;;;;;;493947;241;27973;-74
2024/02/18 04:35:17;;;;;;;8.23;6.95;;;3.70;99.90;;;;;;493972;241;27560;-74
2024/02/18 04:37:18;;;;;;;11.70;7.50;;;3.70;99.90;;;;;;493890;241;27486;-73
2024/02/18 04:39:20;;;;;;;14.70;9.27;;;3.70;99.90;;;;;;493947;241;27552;-73
2024/02/18 04:41:21;;;;;;;11.32;7.43;;;3.70;99.90;;;;;;493974;241;27505;-73
2024/02/18 04:43:22;;;;;;;13.45;8.10;;;3.70;99.90;;;;;;493849;241;27620;-74
2024/02/18 04:45:23;;;;;;;20.33;9.95;;;3.70;99.90;;;;;;493872;241;27524;-73
2024/02/18 04:47:25;;;;;;;16.42;8.70;;;3.60;99.90;;;;;;493824;241;28038;-73
2024/02/18 04:49:26;;;;;;;12.25;8.23;;;3.50;99.90;;;;;;493918;241;29021;-73
2024/02/18 04:51:27;;;;;;;14.95;8.52;;;3.50;99.90;;;;;;493943;241;27473;-73
2024/02/18 04:53:28;;;;;;;16.20;8.20;;;3.40;99.90;;;;;;493937;241;27614;-74
2024/02/18 04:55:30;;;;;;;12.27;8.23;;;3.40;99.90;;;;;;493956;241;27462;-73
2024/02/18 04:57:31;;;;;;;9.85;7.18;;;3.40;99.90;;;;;;493850;241;27500;-73
2024/02/18 04:59:35;;;;;;;8.52;6.62;;;3.50;99.90;;;;;;493971;241;27879;-74
2024/02/18 05:01:33;;;;;;;18.48;8.27;;;3.40;99.90;;;;;;493743;237;28082;-73
2024/02/18 05:03:35;;;;;;;12.25;8.07;;;3.30;99.90;;;;;;493894;241;27519;-73
2024/02/18 05:05:36;;;;;;;10.32;7.30;;;3.30;99.90;;;;;;493915;241;27556;-73
2024/02/18 05:07:37;;;;;;;10.20;7.10;;;3.30;99.90;;;;;;493917;241;27493;-73
2024/02/18 05:09:39;;;;;;;10.70;7.65;;;3.40;99.90;;;;;;493944;241;27518;-75
2024/02/18 05:11:40;;;;;;;13.93;9.20;;;3.40;99.90;;;;;;493927;241;27469;-73
2024/02/18 05:13:41;;;;;;;12.65;7.65;;;3.40;99.90;;;;;;493927;237;27509;-74
2024/02/18 05:15:42;;;;;;;13.65;8.15;;;3.40;99.90;;;;;;493955;241;27466;-73
2024/02/18 05:17:44;;;;;;;16.27;9.45;;;3.40;99.90;;;;;;493904;241;27985;-74
2024/02/18 05:19:45;;;;;;;13.95;9.05;;;3.50;99.90;;;;;;493958;241;27986;-74
2024/02/18 05:21:46;;;;;;;11.80;9.23;;;3.40;99.90;;;;;;493853;237;27700;-73
2024/02/18 05:23:47;;;;;;;12.95;8.40;;;3.40;99.90;;;;;;493762;241;27596;-73
2024/02/18 05:25:49;;;;;;;15.48;9.45;;;3.50;99.90;;;;;;493906;241;27516;-75
2024/02/18 05:27:50;;;;;;;15.85;10.45;;;3.60;99.90;;;;;;493896;241;27477;-73
2024/02/18 05:29:51;;;;;;;17.12;9.27;;;3.70;99.90;;;;;;493926;241;27510;-73
2024/02/18 05:31:52;;;;;;;18.40;10.70;;;3.90;99.90;;;;;;493909;241;27481;-73
2024/02/18 05:33:54;;;;;;;15.70;9.93;;;3.90;99.90;;;;;;493948;241;27552;-74
2024/02/18 05:35:55;;;;;;;17.70;10.85;;;4.00;99.90;;;;;;493980;241;28080;-74
2024/02/18 05:37:56;;;;;;;14.07;9.85;;;4.10;99.90;;;;;;493890;241;28116;-73
2024/02/18 05:39:57;;;;;;;13.90;9.50;;;4.00;99.90;;;;;;493915;241;27498;-73
2024/02/18 05:41:59;;;;;;;13.98;9.00;;;4.00;99.90;;;;;;493915;241;27501;-73
2024/02/18 05:44:00;;;;;;;14.45;9.05;;;3.90;99.90;;;;;;493930;241;27467;-73
2024/02/18 05:46:01;;;;;;;16.33;8.30;;;3.80;99.90;;;;;;493829;237;27510;-73
2024/02/18 05:48:02;;;;;;;8.07;6.65;;;3.60;99.90;;;;;;493853;241;27490;-73
2024/02/18 05:50:04;;;;;;;11.40;6.45;;;3.30;99.90;;;;;;493942;241;27512;-74
2024/02/18 05:52:05;;;;;;;10.07;6.85;;;3.30;99.90;;;;;;493934;241;28235;-75
2024/02/18 05:54:06;;;;;;;8.75;6.57;;;3.30;99.90;;;;;;493921;241;28037;-73
2024/02/18 05:56:07;;;;;;;12.15;7.85;;;3.30;99.90;;;;;;493930;241;28051;-74
2024/02/18 05:58:09;;;;;;;16.37;8.13;;;3.20;99.90;;;;;;493832;241;27574;-73
2024/02/18 06:00:10;;;;;;;13.98;8.18;;;3.30;99.90;;;;;;493945;237;27497;-73
2024/02/18 06:02:11;;;;;;;17.33;8.63;;;3.50;99.90;;;;;;493973;241;27517;-74
2024/02/18 06:04:12;;;;;;;18.40;8.82;;;3.50;99.90;;;;;;493947;241;27657;-73
2024/02/18 06:06:14;;;;;;;12.93;8.32;;;3.60;99.90;;;;;;493882;241;27548;-77
2024/02/18 06:08:15;;;;;;;12.25;8.15;;;3.70;99.90;;;;;;493847;241;27493;-73
2024/02/18 06:10:16;;;;;;;15.25;8.82;;;3.70;99.90;;;;;;493958;241;27537;-73
2024/02/18 06:12:18;;;;;;;17.20;9.10;;;3.80;99.90;;;;;;493952;241;28125;-74
2024/02/18 06:14:19;;;;;;;17.42;10.57;;;3.90;99.90;;;;;;493929;241;27916;-73
2024/02/18 06:16:20;;;;;;;12.00;8.00;;;3.90;99.90;;;;;;493800;241;29097;-74
2024/02/18 06:18:21;;;;;;;19.27;11.27;;;4.00;99.90;;;;;;493954;241;27584;-73
2024/02/18 06:20:22;;;;;;;17.58;11.30;;;4.10;99.90;;;;;;493972;241;27461;-73
2024/02/18 06:22:24;;;;;;;14.07;10.52;;;4.20;99.90;;;;;;493932;241;27504;-74
2024/02/18 06:24:27;;;;;;;15.48;10.85;;;4.30;99.90;;;;;;493920;241;27477;-73
2024/02/18 06:26:27;;;;;;;16.08;10.43;;;4.30;99.90;;;;;;493666;241;27597;-73
2024/02/18 06:28:32;;;;;;;17.55;10.43;;;4.40;99.90;;;;;;493951;237;28095;-76
2024/02/18 06:30:29;;;;;;;14.27;10.57;;;4.50;99.90;;;;;;493590;241;27987;-73
2024/02/18 06:32:30;;;;;;;15.52;10.18;;;4.50;99.90;;;;;;493918;241;27510;-74
2024/02/18 06:34:31;;;;;;;13.32;9.15;;;4.60;99.90;;;;;;493925;241;27456;-72
2024/02/18 06:36:35;;;;;;;17.90;11.32;;;4.70;99.90;;;;;;493913;237;28104;-73
2024/02/18 06:38:35;;;;;;;15.68;10.77;;;4.70;99.90;;;;;;493737;241;27550;-74
2024/02/18 06:40:35;;;;;;;17.33;10.90;;;4.70;99.90;;;;;;493923;241;27480;-73
2024/02/18 06:42:36;;;;;;;13.65;9.70;;;4.70;99.90;;;;;;493946;241;27994;-73
2024/02/18 06:44:38;;;;;;;15.02;10.60;;;4.70;99.90;;;;;;493971;237;28130;-74
2024/02/18 06:46:39;;;;;;;16.83;9.43;;;4.70;99.90;;;;;;493783;241;27624;-73
2024/02/18 06:48:40;;;;;;;16.05;10.32;;;4.80;99.90;;;;;;493776;241;27498;-74
2024/02/18 06:50:41;;;;;;;19.83;12.07;;;4.90;99.90;;;;;;493913;241;27466;-73
2024/02/18 06:52:43;;;;;;;19.12;11.68;;;4.90;99.90;;;;;;493941;241;27604;-73
2024/02/18 06:54:44;;;;;;;13.43;9.60;;;5.00;99.90;;;;;;494014;241;28054;-75
2024/02/18 06:56:45;;;;;;;15.85;10.30;;;5.00;99.90;;;;;;493952;241;27917;-73
2024/02/18 06:58:46;;;;;;;17.20;10.30;;;5.10;99.90;;;;;;493953;241;27491;-73
2024/02/18 07:00:48;;;;;;;15.20;9.52;;;5.10;99.90;;;;;;493922;241;27461;-73
2024/02/18 07:02:49;;;;;;;13.82;9.82;;;5.10;99.90;;;;;;493991;241;27475;-73
2024/02/18 07:04:50;;;;;;;17.35;11.25;;;5.20;99.90;;;;;;493968;241;27597;-74
2024/02/18 07:06:51;;;;;;;14.63;9.52;;;5.30;99.90;;;;;;493916;241;27930;-72
2024/02/18 07:08:53;;;;;;;14.45;9.90;;;5.20;99.90;;;;;;493954;241;27980;-74
2024/02/18 07:10:54;;;;;;;19.10;10.32;;;5.30;99.90;;;;;;493985;241;27492;-73
2024/02/18 07:12:55;;;;;;;14.00;9.35;;;5.30;99.90;;;;;;493961;241;27475;-73
2024/02/18 07:14:56;;;;;;;14.45;9.20;;;5.30;99.90;;;;;;493808;241;27544;-73
2024/02/18 07:16:58;;;;;;;14.05;9.68;;;5.40;99.90;;;;;;493910;237;27469;-73
2024/02/18 07:18:59;;;;;;;15.32;10.18;;;5.50;99.90;;;;;;493908;241;27528;-73
2024/02/18 07:21:01;;;;;;;15.88;11.52;;;5.50;99.90;;;;;;493993;241;28097;-75
2024/02/18 07:23:01;;;;;;;16.75;11.65;;;5.50;99.90;;;;;;493954;241;27484;-73
2024/02/18 07:25:06;;;;;;;13.60;9.55;;;5.60;99.90;;;;;;493958;241;27510;-73
2024/02/18 07:27:04;;;;;;;18.92;11.48;;;5.60;99.90;;;;;;493596;241;27599;-73
2024/02/18 07:29:05;;;;;;;17.62;11.80;;;5.70;99.90;;;;;;493971;241;27477;-73
2024/02/18 07:31:07;;;;;;;19.83;12.45;;;5.60;99.90;;;;;;493951;241;27985;-74
2024/02/18 07:33:08;;;;;;;17.35;10.57;;;5.60;99.90;;;;;;493930;241;27586;-73
2024/02/18 07:35:09;;;;;;;17.98;10.73;;;5.60;99.90;;;;;;493808;241;27484;-74
2024/02/18 07:37:10;;;;;;;14.05;10.00;;;5.70;99.90;;;;;;493911;241;27847;-74
2024/02/18 07:39:12;;;;;;;22.37;13.02;;;5.80;99.90;;;;;;493992;241;27459;-73
2024/02/18 07:41:13;;;;;;;17.60;11.52;;;5.80;99.90;;;;;;493983;237;27589;-74
2024/02/18 07:43:14;;;;;;;17.52;11.27;;;5.90;99.90;;;;;;493954;241;28142;-73
2024/02/18 07:45:15;;;;;;;15.15;10.90;;;5.90;99.90;;;;;;493879;241;27521;-73
2024/02/18 07:47:18;;;;;;;17.45;12.05;;;6.00;99.90;;;;;;493905;241;27572;-74
2024/02/18 07:49:20;;;;;;;17.17;11.17;;;6.10;99.90;;;;;;493933;241;27472;-73
2024/02/18 07:51:19;;;;;;;16.05;10.52;;;6.10;99.90;;;;;;493848;241;28925;-73
2024/02/18 07:53:21;;;;;;;15.10;9.35;;;6.20;99.90;;;;;;493982;241;28206;-75
2024/02/18 07:55:22;;;;;;;13.37;9.50;;;6.30;99.90;;;;;;494012;241;27469;-73
2024/02/18 07:57:23;;;;;;;14.07;9.27;;;6.40;99.90;;;;;;493896;237;28830;-73
2024/02/18 07:59:24;;;;;;;16.23;10.40;;;6.40;99.90;;;;;;493963;241;27621;-73
2024/02/18 08:01:26;;;;;;;14.80;10.25;;;6.50;99.90;;;;;;493973;241;27549;-73
2024/02/18 08:03:27;;;;;;;13.55;9.60;;;6.60;99.90;;;;;;493996;241;27989;-73
2024/02/18 08:05:28;;;;;;;15.73;10.10;;;6.60;99.90;;;;;;494009;241;27474;-73
2024/02/18 08:07:29;;;;;;;13.73;9.17;;;6.60;99.90;;;;;;493967;241;27513;-73
2024/02/18 08:09:31;;;;;;;11.90;9.10;;;6.60;99.90;;;;;;493939;241;28873;-73
2024/02/18 08:11:32;;;;;;;13.43;9.50;;;6.60;99.90;;;;;;493934;241;28795;-73
2024/02/18 08:13:33;;;;;;;14.13;9.18;;;6.70;99.90;;;;;;493897;241;28679;-74
2024/02/18 08:15:35;;;;;;;14.60;10.63;;;6.70;99.90;;;;;;493944;241;27988;-73
2024/02/18 08:17:36;;;;;;;13.40;8.83;;;6.70;99.90;;;;;;493885;241;28344;-73
2024/02/18 08:19:37;;;;;;;15.20;10.07;;;6.80;99.90;;;;;;494023;241;29417;-75
2024/02/18 08:21:38;;;;;;;12.70;8.80;;;6.70;99.90;;;;;;494003;241;27578;-74
2024/02/18 08:23:39;;;;;;;15.30;9.52;;;6.80;99.90;;;;;;493964;241;27853;-74
2024/02/18 08:25:41;;;;;;;13.50;9.20;;;6.90;99.90;;;;;;493965;241;27541;-73
2024/02/18 08:27:42;;;;;;;14.70;9.13;;;6.90;99.90;;;;;;493930;241;28563;-74
2024/02/18 08:29:43;;;;;;;12.40;8.90;;;6.90;99.90;;;;;;494015;241;27973;-76
2024/02/18 08:31:44;;;;;;;17.47;9.27;;;6.90;99.90;;;;;;493981;241;28125;-74
2024/02/18 08:33:46;;;;;;;13.77;10.30;;;7.00;99.90;;;;;;493950;241;28079;-73
2024/02/18 08:35:47;;;;;;;15.03;10.13;;;7.00;99.90;;;;;;493954;241;28799;-74
2024/02/18 08:37:49;;;;;;;10.27;7.63;;;7.00;99.90;;;;;;493942;239;27470;-74
2024/02/18 08:39:49;;;;;;;11.23;8.27;;;7.10;99.90;;;;;;493934;237;28206;-74
2024/02/18 08:41:54;;;;;;;12.10;8.63;;;7.20;99.90;;;;;;493994;241;28397;-73
2024/02/18 08:43:53;;;;;;;14.60;10.30;;;7.30;99.90;;;;;;493627;241;28395;-74
2024/02/18 08:45:53;;;;;;;11.70;8.77;;;7.30;99.90;;;;;;494005;241;27481;-73
2024/02/18 08:47:54;;;;;;;14.37;9.10;;;7.40;99.90;;;;;;493885;241;28080;-73
2024/02/18 08:49:56;;;;;;;11.77;8.10;;;7.50;99.90;;;;;;493985;241;27860;-73
2024/02/18 08:51:58;;;;;;;11.50;8.90;;;7.50;99.90;;;;;;493950;241;27998;-73
2024/02/18 08:53:58;;;;;;;13.33;9.10;;;7.50;99.90;;;;;;493857;241;28391;-74
2024/02/18 08:55:59;;;;;;;19.90;8.63;;;7.60;99.90;;;;;;494000;241;28379;-76
2024/02/18 08:58:01;;;;;;;13.27;7.90;;;7.60;99.90;;;;;;493853;241;28392;-73
2024/02/18 09:00:02;;;;;;;9.23;7.20;;;7.70;99.90;;;;;;493943;237;27951;-74
2024/02/18 09:02:03;;;;;;;9.07;6.80;;;7.70;99.90;;;;;;493952;241;27951;-73
2024/02/18 09:04:05;;;;;;;10.60;6.67;;;7.80;99.90;;;;;;494004;241;27634;-74
2024/02/18 09:06:06;;;;;;;9.60;6.47;;;7.90;99.90;;;;;;494003;241;27951;-75
2024/02/18 09:08:08;;;;;;;10.07;6.37;;;8.00;99.90;;;;;;493884;241;28033;-74
2024/02/18 09:10:08;;;;;;;13.20;7.40;;;8.00;99.90;;;;;;493926;241;27609;-74
2024/02/18 09:12:09;;;;;;;10.83;6.70;;;8.00;99.90;;;;;;493961;241;27898;-73
2024/02/18 09:14:11;;;;;;;14.00;6.60;;;8.00;99.90;;;;;;493931;241;28053;-74
2024/02/18 09:16:12;;;;;;;7.80;5.13;;;8.10;99.90;;;;;;493934;241;27862;-78
2024/02/18 09:18:14;;;;;;;10.00;6.10;;;8.20;99.90;;;;;;493905;237;27884;-72
2024/02/18 09:20:15;;;;;;;7.73;5.53;;;8.20;99.90;;;;;;493924;241;27795;-74
2024/02/18 09:22:16;;;;;;;11.20;6.13;;;8.30;99.90;;;;;;493970;237;28640;-75
2024/02/18 09:24:17;;;;;;;8.13;6.17;;;8.30;99.90;;;;;;493911;241;28227;-74
2024/02/18 09:26:19;;;;;;;9.90;5.80;;;8.40;99.90;;;;;;493874;241;28521;-74
2024/02/18 09:28:20;;;;;;;7.90;5.47;;;8.50;99.90;;;;;;493864;241;28465;-73
2024/02/18 09:30:21;;;;;;;7.57;5.20;;;8.50;99.90;;;;;;493930;241;27918;-74
2024/02/18 09:32:22;;;;;;;6.83;5.37;;;8.50;99.90;;;;;;493987;241;27981;-75
2024/02/18 09:34:23;;;;;;;7.00;5.07;;;8.40;99.90;;;;;;493964;241;27823;-73
2024/02/18 09:36:24;;;;;;;7.80;5.20;;;8.50;99.90;;;;;;493920;241;27998;-73
2024/02/18 09:38:26;;;;;;;6.03;4.90;;;8.50;99.90;;;;;;493940;241;27916;-74
2024/02/18 09:40:28;;;;;;;8.13;5.30;;;8.50;99.90;;;;;;493995;237;27600;-73
2024/02/18 09:42:28;;;;;;;6.83;5.10;;;8.60;99.90;;;;;;493963;241;28191;-74
2024/02/18 09:44:30;;;;;;;10.90;5.73;;;8.60;99.90;;;;;;493899;241;27894;-73
2024/02/18 09:46:31;;;;;;;6.80;5.23;;;8.60;99.90;;;;;;493842;241;27718;-74
2024/02/18 09:48:32;;;;;;;8.57;5.27;;;8.70;99.90;;;;;;493736;241;28214;-73
2024/02/18 09:50:35;;;;;;;6.63;4.57;;;8.80;99.90;;;;;;493984;241;28141;-73
2024/02/18 09:52:34;;;;;;;10.77;5.80;;;8.90;99.90;;;;;;493810;241;27861;-74
2024/02/18 09:54:36;;;;;;;7.43;4.50;;;8.90;99.90;;;;;;493937;241;28105;-74
2024/02/18 09:56:37;;;;;;;5.33;4.80;;;9.00;99.90;;;;;;493810;241;28616;-74
2024/02/18 09:58:39;;;;;;;6.60;4.40;;;9.10;99.90;;;;;;493983;237;28527;-74
2024/02/18 10:00:39;;;;;;;6.47;4.87;;;9.10;99.90;;;;;;493963;241;28385;-73
2024/02/18 10:02:41;;;;;;;10.00;4.97;;;9.00;99.90;;;;;;493886;241;28583;-73
2024/02/18 10:04:46;;;;;;;6.20;4.33;;;9.10;99.90;;;;;;493960;241;28426;-73
2024/02/18 10:06:43;;;;;;;8.97;5.67;;;9.10;99.90;;;;;;493638;241;27723;-73
2024/02/18 10:08:51;;;;;;;5.83;4.10;;;9.10;99.90;;;;;;494011;241;27891;-77
2024/02/18 10:10:46;;;;;;;8.40;4.63;;;9.10;99.90;;;;;;493430;241;27948;-73
2024/02/18 10:12:47;;;;;;;5.60;4.43;;;9.20;99.90;;;;;;493967;241;27879;-74
2024/02/18 10:14:48;;;;;;;4.30;3.90;;;9.30;99.90;;;;;;493983;241;27818;-74
2024/02/18 10:16:49;;;;;;;5.37;4.87;;;9.40;99.90;;;;;;493945;241;27753;-74
2024/02/18 10:18:51;;;;;;;5.20;4.47;;;9.40;99.90;;;;;;494022;241;27867;-74
2024/02/18 10:20:54;;;;;;;5.87;3.63;;;9.30;99.90;;;;;;494001;241;28056;-73
2024/02/18 10:22:53;;;;;;;5.30;4.00;;;9.30;99.90;;;;;;493825;241;27858;-72
2024/02/18 10:24:55;;;;;;;5.20;4.23;;;9.50;99.90;;;;;;493987;241;28371;-73
2024/02/18 10:26:59;;;;;;;6.40;4.40;;;9.40;99.90;;;;;;493929;241;27984;-74
2024/02/18 10:29:00;;;;;;;20.23;12.07;;;9.40;99.90;;;;;;493992;241;27685;-73
2024/02/18 10:31:02;;;;;;;7.07;5.40;;;9.50;99.90;;;;;;493953;241;28076;-73